createdAt,value
2022-10-13T00:01:39.931Z,13.10
2022-10-13T00:04:08.039Z,13.10
2022-10-13T00:06:56.272Z,13.10
2022-10-13T00:09:44.568Z,13.10
2022-10-13T00:12:35.583Z,13.10
2022-10-13T00:15:25.922Z,13.10
2022-10-13T00:17:55.590Z,13.10
2022-10-13T00:20:23.573Z,13.00
2022-10-13T00:22:51.493Z,13.00
2022-10-13T00:25:19.412Z,12.90
2022-10-13T00:27:47.333Z,13.00
2022-10-13T00:30:15.495Z,13.00
2022-10-13T00:32:43.464Z,12.90
2022-10-13T00:35:12.845Z,12.90
2022-10-13T00:37:40.733Z,12.90
2022-10-13T00:40:09.554Z,12.90
2022-10-13T00:42:37.469Z,12.90
2022-10-13T00:45:08.460Z,12.90
2022-10-13T00:47:40.630Z,12.90
2022-10-13T00:50:13.302Z,12.90
2022-10-13T00:52:42.709Z,12.80
2022-10-13T00:55:14.621Z,12.80
2022-10-13T00:57:45.203Z,12.80
2022-10-13T01:00:14.381Z,12.80
2022-10-13T01:02:42.458Z,12.80
2022-10-13T01:05:12.087Z,12.80
2022-10-13T01:07:40.046Z,12.80
2022-10-13T01:10:08.785Z,12.80
2022-10-13T01:12:46.050Z,12.70
2022-10-13T01:15:21.426Z,12.70
2022-10-13T01:17:59.581Z,12.60
2022-10-13T01:20:56.432Z,12.60
2022-10-13T01:24:12.388Z,12.50
2022-10-13T01:27:22.595Z,12.50
2022-10-13T01:30:05.722Z,12.50
2022-10-13T01:32:44.950Z,12.50
2022-10-13T01:35:18.835Z,12.60
2022-10-13T01:37:50.866Z,12.60
2022-10-13T01:40:27.243Z,12.60
2022-10-13T01:43:01.976Z,12.70
2022-10-13T01:45:37.441Z,12.70
2022-10-13T01:48:07.192Z,12.70
2022-10-13T01:50:37.987Z,12.70
2022-10-13T01:53:07.214Z,12.70
2022-10-13T01:55:35.442Z,12.70
2022-10-13T01:58:03.391Z,12.70
2022-10-13T02:00:50.400Z,12.70
2022-10-13T02:03:24.385Z,12.80
2022-10-13T02:05:58.873Z,12.80
2022-10-13T02:08:41.167Z,12.80
2022-10-13T02:11:14.673Z,12.80
2022-10-13T02:13:46.285Z,12.70
2022-10-13T02:16:37.641Z,12.80
2022-10-13T02:19:26.240Z,12.80
2022-10-13T02:22:17.515Z,12.80
2022-10-13T02:25:07.050Z,12.80
2022-10-13T02:27:35.214Z,12.60
2022-10-13T02:30:03.837Z,12.60
2022-10-13T02:32:33.169Z,12.60
2022-10-13T02:35:01.148Z,12.50
2022-10-13T02:37:29.051Z,12.50
2022-10-13T02:39:56.904Z,12.60
2022-10-13T02:42:24.874Z,12.60
2022-10-13T02:44:52.895Z,12.60
2022-10-13T02:47:20.935Z,12.60
2022-10-13T02:49:50.253Z,12.70
2022-10-13T02:52:18.433Z,12.80
2022-10-13T02:54:46.586Z,12.80
2022-10-13T02:57:14.505Z,12.90
2022-10-13T02:59:42.427Z,12.90
2022-10-13T03:02:10.315Z,12.90
2022-10-13T03:04:38.188Z,13.00
2022-10-13T03:07:07.564Z,12.90
2022-10-13T03:09:36.051Z,13.00
2022-10-13T03:12:04.161Z,13.00
2022-10-13T03:14:32.152Z,13.00
2022-10-13T03:17:00.213Z,13.00
2022-10-13T03:19:28.257Z,13.00
2022-10-13T03:21:56.199Z,13.00
2022-10-13T03:24:25.616Z,13.00
2022-10-13T03:26:53.633Z,13.10
2022-10-13T03:29:22.489Z,13.00
2022-10-13T03:31:50.437Z,13.10
2022-10-13T03:34:20.142Z,13.00
2022-10-13T03:36:48.304Z,13.10
2022-10-13T03:39:16.461Z,13.10
2022-10-13T03:41:46.124Z,13.10
2022-10-13T03:44:14.714Z,13.00
2022-10-13T03:46:42.758Z,13.00
2022-10-13T03:49:11.121Z,12.90
2022-10-13T03:51:39.596Z,12.80
2022-10-13T03:54:07.530Z,12.70
2022-10-13T03:56:35.900Z,12.60
2022-10-13T03:59:05.383Z,12.60
2022-10-13T04:01:34.411Z,12.60
2022-10-13T04:04:03.278Z,12.70
2022-10-13T04:06:31.969Z,12.60
2022-10-13T04:09:00.002Z,12.60
2022-10-13T04:11:27.975Z,12.60
2022-10-13T04:13:57.373Z,12.50
2022-10-13T04:16:28.408Z,12.50
2022-10-13T04:18:58.514Z,12.50
2022-10-13T04:21:27.082Z,12.50
2022-10-13T04:23:57.190Z,12.40
2022-10-13T04:26:27.408Z,12.40
2022-10-13T04:28:56.328Z,12.30
2022-10-13T04:31:28.814Z,12.30
2022-10-13T04:33:56.786Z,12.40
2022-10-13T04:36:25.503Z,12.40
2022-10-13T04:38:54.975Z,12.50
2022-10-13T04:41:23.796Z,12.60
2022-10-13T04:43:53.140Z,12.50
2022-10-13T04:46:22.887Z,12.50
2022-10-13T04:48:52.987Z,12.50
2022-10-13T04:51:24.262Z,12.40
2022-10-13T04:53:55.720Z,12.40
2022-10-13T04:56:23.773Z,12.40
2022-10-13T04:58:52.004Z,12.50
2022-10-13T05:01:22.655Z,12.50
2022-10-13T05:03:53.516Z,12.50
2022-10-13T05:06:23.498Z,12.50
2022-10-13T05:08:52.008Z,12.50
2022-10-13T05:11:20.725Z,12.50
2022-10-13T05:13:48.749Z,12.60
2022-10-13T05:16:18.248Z,12.60
2022-10-13T05:18:46.313Z,12.60
2022-10-13T05:21:17.693Z,12.70
2022-10-13T05:23:46.279Z,12.70
2022-10-13T05:26:16.972Z,12.70
2022-10-13T05:28:45.666Z,12.80
2022-10-13T05:31:14.977Z,12.80
2022-10-13T05:33:43.244Z,12.80
2022-10-13T05:36:13.430Z,12.90
2022-10-13T05:38:43.103Z,12.80
2022-10-13T05:41:12.884Z,12.90
2022-10-13T05:43:42.008Z,12.90
2022-10-13T05:46:10.292Z,12.90
2022-10-13T05:48:38.935Z,12.90
2022-10-13T05:51:11.527Z,12.90
2022-10-13T05:53:49.164Z,12.90
2022-10-13T05:56:22.358Z,12.90
2022-10-13T05:58:54.686Z,12.90
2022-10-13T06:01:25.659Z,12.90
2022-10-13T06:03:56.373Z,12.90
2022-10-13T06:06:30.507Z,12.90
2022-10-13T06:09:01.463Z,13.00
2022-10-13T06:11:29.456Z,13.00
2022-10-13T06:14:04.271Z,13.00
2022-10-13T06:16:32.264Z,13.00
2022-10-13T06:19:00.284Z,13.10
2022-10-13T06:21:28.169Z,13.10
2022-10-13T06:23:56.078Z,13.10
2022-10-13T06:26:25.402Z,13.10
2022-10-13T06:28:58.422Z,13.10
2022-10-13T06:31:27.924Z,13.10
2022-10-13T06:33:56.084Z,13.10
2022-10-13T06:36:24.046Z,13.20
2022-10-13T06:38:52.547Z,13.10
2022-10-13T06:41:20.640Z,13.20
2022-10-13T06:43:50.129Z,13.20
2022-10-13T06:46:18.151Z,13.20
2022-10-13T06:48:46.035Z,13.30
2022-10-13T06:51:13.969Z,13.30
2022-10-13T06:53:41.885Z,13.30
2022-10-13T06:56:10.791Z,13.30
2022-10-13T06:58:39.168Z,13.40
2022-10-13T07:01:09.205Z,13.40
2022-10-13T07:03:37.170Z,13.40
2022-10-13T07:06:06.782Z,13.40
2022-10-13T07:08:35.769Z,13.50
2022-10-13T07:11:11.663Z,13.50
2022-10-13T07:13:46.467Z,13.50
2022-10-13T07:16:17.039Z,13.50
2022-10-13T07:18:45.012Z,13.50
2022-10-13T07:21:12.911Z,13.60
2022-10-13T07:23:40.866Z,13.60
2022-10-13T07:26:09.677Z,13.60
2022-10-13T07:28:38.001Z,13.60
2022-10-13T07:31:11.049Z,13.70
2022-10-13T07:33:40.694Z,13.70
2022-10-13T07:36:09.592Z,13.70
2022-10-13T07:38:37.665Z,13.70
2022-10-13T07:41:07.412Z,13.70
2022-10-13T07:43:35.762Z,13.80
2022-10-13T07:46:05.633Z,13.80
2022-10-13T07:48:34.848Z,13.80
2022-10-13T07:51:07.160Z,13.80
2022-10-13T07:53:36.073Z,13.90
2022-10-13T07:56:05.109Z,13.90
2022-10-13T07:58:33.590Z,13.90
2022-10-13T08:01:03.175Z,13.90
2022-10-13T08:03:32.651Z,13.90
2022-10-13T08:06:01.320Z,13.90
2022-10-13T08:08:31.556Z,13.90
2022-10-13T08:11:02.241Z,14.00
2022-10-13T08:13:30.249Z,13.90
2022-10-13T08:16:01.308Z,13.90
2022-10-13T08:18:30.149Z,13.90
2022-10-13T08:21:32.991Z,13.90
2022-10-13T08:23:51.956Z,13.90
2022-10-13T08:26:22.983Z,13.90
2022-10-13T08:29:09.557Z,13.90
2022-10-13T08:31:39.488Z,13.80
2022-10-13T08:34:07.645Z,13.80
2022-10-13T08:36:35.658Z,13.80
2022-10-13T08:39:05.808Z,13.80
2022-10-13T08:41:37.825Z,13.70
2022-10-13T08:47:06.528Z,13.90
2022-10-13T08:49:34.833Z,14.00
2022-10-13T08:52:04.941Z,14.10
2022-10-13T08:54:34.726Z,14.10
2022-10-13T08:57:05.069Z,14.10
2022-10-13T08:59:33.259Z,14.10
2022-10-13T09:02:01.861Z,14.20
2022-10-13T09:04:33.056Z,14.30
2022-10-13T09:07:06.591Z,14.40
2022-10-13T09:09:36.154Z,14.50
2022-10-13T09:12:05.269Z,14.50
2022-10-13T09:14:35.028Z,14.60
2022-10-13T09:17:16.517Z,14.70
2022-10-13T09:19:44.933Z,14.80
2022-10-13T09:22:22.750Z,14.80
2022-10-13T09:25:10.163Z,14.90
2022-10-13T09:27:46.249Z,14.90
2022-10-13T09:30:33.664Z,15.00
2022-10-13T09:33:25.171Z,15.00
2022-10-13T09:36:12.156Z,15.10
2022-10-13T09:38:41.713Z,15.20
2022-10-13T09:41:20.378Z,15.20
2022-10-13T09:44:07.975Z,15.40
2022-10-13T09:46:40.247Z,15.50
2022-10-13T09:49:29.979Z,15.50
2022-10-13T09:52:02.149Z,15.60
2022-10-13T09:54:39.306Z,15.70
2022-10-13T09:57:16.351Z,15.80
2022-10-13T09:59:49.425Z,15.70
2022-10-13T10:02:31.844Z,15.70
2022-10-13T10:05:04.068Z,15.70
2022-10-13T10:07:34.590Z,15.70
2022-10-13T10:10:06.246Z,15.70
2022-10-13T10:12:39.073Z,15.80
2022-10-13T10:15:19.306Z,15.80
2022-10-13T10:17:54.165Z,15.80
2022-10-13T10:20:42.808Z,15.90
2022-10-13T10:23:18.561Z,15.90
2022-10-13T10:25:50.125Z,16.00
2022-10-13T10:28:37.121Z,16.10
2022-10-13T10:31:21.970Z,16.20
2022-10-13T10:34:00.019Z,16.20
2022-10-13T10:36:35.599Z,16.30
2022-10-13T10:39:13.753Z,16.40
2022-10-13T10:41:48.523Z,16.40
2022-10-13T10:44:21.379Z,16.50
2022-10-13T10:46:50.793Z,16.50
2022-10-13T10:49:24.981Z,16.50
2022-10-13T10:51:53.262Z,16.50
2022-10-13T10:54:32.037Z,16.60
2022-10-13T10:57:05.874Z,16.70
2022-10-13T10:59:50.514Z,16.80
2022-10-13T11:02:40.894Z,16.90
2022-10-13T11:05:09.024Z,16.90
2022-10-13T11:07:58.449Z,16.90
2022-10-13T11:10:28.640Z,16.90
2022-10-13T11:13:26.008Z,16.80
2022-10-13T11:15:55.629Z,16.70
2022-10-13T11:19:05.847Z,16.70
2022-10-13T11:22:13.062Z,16.70
2022-10-13T11:24:55.666Z,16.60
2022-10-13T11:27:54.955Z,16.50
2022-10-13T11:30:47.348Z,16.40
2022-10-13T11:33:57.375Z,16.40
2022-10-13T11:36:57.544Z,16.40
2022-10-13T11:40:00.303Z,16.40
2022-10-13T11:42:55.626Z,16.40
2022-10-13T11:45:41.712Z,16.40
2022-10-13T11:48:34.998Z,16.40
2022-10-13T11:51:16.240Z,16.50
2022-10-13T11:53:53.585Z,16.40
2022-10-13T11:56:23.387Z,16.40
2022-10-13T11:58:51.333Z,16.40
2022-10-13T12:01:20.097Z,16.30
2022-10-13T12:03:48.872Z,16.40
2022-10-13T12:06:33.633Z,16.40
2022-10-13T12:09:04.196Z,16.40
2022-10-13T12:11:34.704Z,16.40
2022-10-13T12:14:03.785Z,16.40
2022-10-13T12:16:31.781Z,16.40
2022-10-13T12:19:10.916Z,16.40
2022-10-13T12:21:51.476Z,16.40
2022-10-13T12:24:19.502Z,16.50
2022-10-13T12:26:47.426Z,16.50
2022-10-13T12:29:17.168Z,16.50
2022-10-13T12:31:47.878Z,16.60
2022-10-13T12:34:25.210Z,16.60
2022-10-13T12:36:58.514Z,16.70
2022-10-13T12:39:28.179Z,16.70
2022-10-13T12:41:57.128Z,16.80
2022-10-13T12:44:28.131Z,16.80
2022-10-13T12:46:59.173Z,16.80
2022-10-13T12:49:28.607Z,16.80
2022-10-13T12:52:06.200Z,16.80
2022-10-13T12:54:36.224Z,16.90
2022-10-13T12:57:13.546Z,16.90
2022-10-13T12:59:43.677Z,16.90
2022-10-13T13:02:25.122Z,16.80
2022-10-13T13:04:53.164Z,16.80
2022-10-13T13:07:30.546Z,16.70
2022-10-13T13:10:17.018Z,16.70
2022-10-13T13:12:45.686Z,16.70
2022-10-13T13:15:34.817Z,16.70
2022-10-13T13:18:31.973Z,16.80
2022-10-13T13:21:01.884Z,16.80
2022-10-13T13:23:34.380Z,16.80
2022-10-13T13:26:04.321Z,16.80
2022-10-13T13:28:33.725Z,16.80
2022-10-13T13:31:01.694Z,16.80
2022-10-13T13:33:29.617Z,16.80
2022-10-13T13:35:57.812Z,16.90
2022-10-13T13:38:25.660Z,16.90
2022-10-13T13:40:54.909Z,16.80
2022-10-13T13:43:23.332Z,16.80
2022-10-13T13:45:51.299Z,16.80
2022-10-13T13:48:19.171Z,16.70
2022-10-13T13:50:47.108Z,16.80
2022-10-13T13:53:14.995Z,16.70
2022-10-13T13:55:45.507Z,16.70
2022-10-13T13:58:14.869Z,16.60
2022-10-13T14:00:42.847Z,16.60
2022-10-13T14:03:10.748Z,16.60
2022-10-13T14:05:40.201Z,16.60
2022-10-13T14:08:08.737Z,16.60
2022-10-13T14:10:36.632Z,16.70
2022-10-13T14:13:04.566Z,16.70
2022-10-13T14:15:33.871Z,16.70
2022-10-13T14:18:01.979Z,16.60
2022-10-13T14:20:29.840Z,16.60
2022-10-13T14:22:57.850Z,16.60
2022-10-13T14:25:25.809Z,16.60
2022-10-13T14:27:53.758Z,16.60
2022-10-13T14:30:21.751Z,16.60
2022-10-13T14:32:51.168Z,16.60
2022-10-13T14:35:19.255Z,16.60
2022-10-13T14:37:47.086Z,16.50
2022-10-13T14:40:17.688Z,16.50
2022-10-13T14:42:45.898Z,16.40
2022-10-13T14:45:15.705Z,16.40
2022-10-13T14:47:43.753Z,16.30
2022-10-13T14:50:13.028Z,16.30
2022-10-13T14:52:40.967Z,16.40
2022-10-13T14:55:09.871Z,16.30
2022-10-13T14:57:37.787Z,16.30
2022-10-13T15:00:06.617Z,16.20
2022-10-13T15:02:34.566Z,16.30
2022-10-13T15:05:22.642Z,16.20
2022-10-13T15:07:50.602Z,16.10
2022-10-13T15:10:18.748Z,16.10
2022-10-13T15:12:46.809Z,16.10
2022-10-13T15:15:14.825Z,16.10
2022-10-13T15:17:42.755Z,16.00
2022-10-13T15:20:11.585Z,16.00
2022-10-13T15:22:40.843Z,16.00
2022-10-13T15:25:11.691Z,16.00
2022-10-13T15:27:42.062Z,15.90
2022-10-13T15:30:11.281Z,15.90
2022-10-13T15:32:39.172Z,15.80
2022-10-13T15:35:07.908Z,15.80
2022-10-13T15:37:35.796Z,15.80
2022-10-13T15:40:05.623Z,15.70
2022-10-13T15:42:33.819Z,15.70
2022-10-13T15:45:09.977Z,15.60
2022-10-13T15:47:38.691Z,15.60
2022-10-13T15:50:07.406Z,15.70
2022-10-13T15:52:39.740Z,15.60
2022-10-13T15:55:10.217Z,15.60
2022-10-13T15:57:38.552Z,15.50
2022-10-13T16:00:08.857Z,15.50
2022-10-13T16:02:36.767Z,15.50
2022-10-13T16:05:05.594Z,15.40
2022-10-13T16:07:33.681Z,15.40
2022-10-13T16:10:01.581Z,15.40
2022-10-13T16:12:31.489Z,15.40
2022-10-13T16:14:59.448Z,15.30
2022-10-13T16:17:27.419Z,15.30
2022-10-13T16:19:55.386Z,15.20
2022-10-13T16:22:23.557Z,15.20
2022-10-13T16:24:51.676Z,15.20
2022-10-13T16:27:19.871Z,15.10
2022-10-13T16:29:49.331Z,15.10
2022-10-13T16:32:17.639Z,15.10
2022-10-13T16:34:48.369Z,15.10
2022-10-13T16:37:16.454Z,15.00
2022-10-13T16:39:49.027Z,15.00
2022-10-13T16:42:19.254Z,14.90
2022-10-13T16:44:47.156Z,14.90
2022-10-13T16:47:18.666Z,14.90
2022-10-13T16:49:47.139Z,14.80
2022-10-13T16:52:15.041Z,14.80
2022-10-13T16:54:42.938Z,14.80
2022-10-13T16:57:11.085Z,14.70
2022-10-13T16:59:39.068Z,14.70
2022-10-13T17:02:07.035Z,14.70
2022-10-13T17:04:36.376Z,14.70
2022-10-13T17:07:04.252Z,14.70
2022-10-13T17:09:32.188Z,14.70
2022-10-13T17:12:00.531Z,14.70
2022-10-13T17:14:28.519Z,14.60
2022-10-13T17:16:57.945Z,14.60
2022-10-13T17:19:26.452Z,14.60
2022-10-13T17:21:55.794Z,14.60
2022-10-13T17:24:23.716Z,14.60
2022-10-13T17:26:51.792Z,14.60
2022-10-13T17:29:19.684Z,14.60
2022-10-13T17:31:47.946Z,14.60
2022-10-13T17:34:15.962Z,14.60
2022-10-13T17:36:43.833Z,14.60
2022-10-13T17:39:13.712Z,14.60
2022-10-13T17:41:42.323Z,14.60
2022-10-13T17:44:11.143Z,14.60
2022-10-13T17:46:39.797Z,14.50
2022-10-13T17:49:09.180Z,14.50
2022-10-13T17:51:37.441Z,14.50
2022-10-13T17:54:05.788Z,14.50
2022-10-13T17:56:35.283Z,14.50
2022-10-13T17:59:03.502Z,14.40
2022-10-13T18:01:33.682Z,14.40
2022-10-13T18:04:05.954Z,14.40
2022-10-13T18:06:38.643Z,14.40
2022-10-13T18:09:08.775Z,14.40
2022-10-13T18:11:38.644Z,14.40
2022-10-13T18:14:07.419Z,14.40
2022-10-13T18:16:36.004Z,14.40
2022-10-13T18:19:04.071Z,14.40
2022-10-13T18:21:32.258Z,14.40
2022-10-13T18:24:02.070Z,14.40
2022-10-13T18:26:32.713Z,14.40
2022-10-13T18:29:02.585Z,14.40
2022-10-13T18:31:32.108Z,14.40
2022-10-13T18:34:03.351Z,14.40
2022-10-13T18:36:33.119Z,14.30
2022-10-13T18:39:07.368Z,14.30
2022-10-13T18:41:37.027Z,14.30
2022-10-13T18:44:07.484Z,14.30
2022-10-13T18:46:37.303Z,14.30
2022-10-13T18:49:06.026Z,14.30
2022-10-13T18:51:36.134Z,14.30
2022-10-13T18:54:04.976Z,14.30
2022-10-13T18:56:33.923Z,14.30
2022-10-13T18:59:02.736Z,14.30
2022-10-13T19:01:34.267Z,14.20
2022-10-13T19:04:02.669Z,14.20
2022-10-13T19:06:32.241Z,14.20
2022-10-13T19:09:01.721Z,14.20
2022-10-13T19:11:30.583Z,14.20
2022-10-13T19:13:59.638Z,14.20
2022-10-13T19:16:30.604Z,14.20
2022-10-13T19:19:00.261Z,14.20
2022-10-13T19:21:28.248Z,14.10
2022-10-13T19:23:59.195Z,14.10
2022-10-13T19:26:30.747Z,14.10
2022-10-13T19:29:01.354Z,14.10
2022-10-13T19:31:31.224Z,14.10
2022-10-13T19:34:01.298Z,14.10
2022-10-13T19:36:31.752Z,14.10
2022-10-13T19:39:00.556Z,14.10
2022-10-13T19:41:30.705Z,14.10
2022-10-13T19:43:59.104Z,14.10
2022-10-13T19:46:27.074Z,14.20
2022-10-13T19:48:55.290Z,14.20
2022-10-13T19:51:26.945Z,14.20
2022-10-13T19:53:54.875Z,14.20
2022-10-13T19:56:24.169Z,14.30
2022-10-13T19:58:53.005Z,14.20
2022-10-13T20:01:21.958Z,14.20
2022-10-13T20:03:50.722Z,14.20
2022-10-13T20:06:19.576Z,14.30
2022-10-13T20:08:49.055Z,14.50
2022-10-13T20:11:23.795Z,14.60
2022-10-13T20:13:53.302Z,14.80
2022-10-13T20:16:23.972Z,14.90
2022-10-13T20:18:53.457Z,15.00
2022-10-13T20:21:21.872Z,15.10
2022-10-13T20:23:51.720Z,15.10
2022-10-13T20:26:20.821Z,15.10
2022-10-13T20:28:50.680Z,15.20
2022-10-13T20:31:20.944Z,15.30
2022-10-13T20:33:50.424Z,15.20
2022-10-13T20:36:19.092Z,15.30
2022-10-13T20:38:48.803Z,15.30
2022-10-13T20:41:19.880Z,15.30
2022-10-13T20:43:48.636Z,15.30
2022-10-13T20:46:19.366Z,15.30
2022-10-13T20:51:35.730Z,15.30
2022-10-13T20:54:03.796Z,15.20
2022-10-13T20:56:33.122Z,15.10
2022-10-13T20:59:04.060Z,15.10
2022-10-13T21:01:32.141Z,15.00
2022-10-13T21:04:00.140Z,14.90
2022-10-13T21:06:28.568Z,14.90
2022-10-13T21:08:56.708Z,14.90
2022-10-13T21:11:25.700Z,14.90
2022-10-13T21:13:55.140Z,14.80
2022-10-13T21:16:24.743Z,14.70
2022-10-13T21:18:53.098Z,14.70
2022-10-13T21:21:22.596Z,14.70
2022-10-13T21:23:51.350Z,14.60
2022-10-13T21:26:22.003Z,14.60
2022-10-13T21:28:51.393Z,14.50
2022-10-13T21:31:22.796Z,14.40
2022-10-13T21:33:51.589Z,14.50
2022-10-13T21:36:21.866Z,14.50
2022-10-13T21:38:53.434Z,14.30
2022-10-13T21:41:21.730Z,14.10
2022-10-13T21:43:50.634Z,14.10
2022-10-13T21:46:22.243Z,14.20
2022-10-13T21:48:51.042Z,14.30
2022-10-13T21:51:21.991Z,14.30
2022-10-13T21:53:51.203Z,14.30
2022-10-13T21:56:22.866Z,14.20
2022-10-13T21:58:53.233Z,14.20
2022-10-13T22:01:35.281Z,14.10
2022-10-13T22:04:18.228Z,14.00
2022-10-13T22:06:46.660Z,14.00
2022-10-13T22:09:17.925Z,14.00
2022-10-13T22:11:46.632Z,13.90
2022-10-13T22:14:15.265Z,13.90
2022-10-13T22:16:47.616Z,13.80
2022-10-13T22:19:24.808Z,13.80
2022-10-13T22:21:53.090Z,13.80
2022-10-13T22:24:24.847Z,13.80
2022-10-13T22:26:53.060Z,13.70
2022-10-13T22:29:24.688Z,13.70
2022-10-13T22:32:00.236Z,13.60
2022-10-13T22:34:28.910Z,13.70
2022-10-13T22:36:57.015Z,13.60
2022-10-13T22:39:25.465Z,13.60
2022-10-13T22:41:53.747Z,13.50
2022-10-13T22:44:21.929Z,13.50
2022-10-13T22:46:55.455Z,13.50
2022-10-13T22:49:26.653Z,13.60
2022-10-13T22:51:54.789Z,13.60
2022-10-13T22:54:23.282Z,13.60
2022-10-13T22:56:54.343Z,13.60
2022-10-13T22:59:27.980Z,13.60
2022-10-13T23:01:57.568Z,13.60
2022-10-13T23:04:26.993Z,13.70
2022-10-13T23:06:55.062Z,13.60
2022-10-13T23:09:25.877Z,13.50
2022-10-13T23:11:59.784Z,13.50
2022-10-13T23:14:28.502Z,13.50
2022-10-13T23:16:58.234Z,13.40
2022-10-13T23:19:31.104Z,13.40
2022-10-13T23:21:59.424Z,13.40
2022-10-13T23:24:27.730Z,13.40
2022-10-13T23:27:00.271Z,13.30
2022-10-13T23:29:32.116Z,13.30
2022-10-13T23:32:09.607Z,13.30
2022-10-13T23:34:38.112Z,13.40
2022-10-13T23:37:09.963Z,13.50
2022-10-13T23:39:38.313Z,13.40
2022-10-13T23:42:09.555Z,13.40
2022-10-13T23:44:37.674Z,13.40
2022-10-13T23:47:07.087Z,13.40
2022-10-13T23:49:37.259Z,13.50
2022-10-13T23:52:10.669Z,13.60
2022-10-13T23:54:39.119Z,13.60
2022-10-13T23:57:07.199Z,13.50
2022-10-13T23:59:38.554Z,13.40
